Time;durP1;ratioP1;P1;durP2;ratioP2;P2;SDS_P1;SDS_P2;PMS_P1;PMS_P2;Temp;Humidity;BMP_temperature;BMP_pressure;BME280_temperature;BME280_humidity;BME280_pressure;Samples;Min_cycle;Max_cycle;Signal;HPM_P1;HPM_P2
2021/07/10 00:00:39;;;;;;;17.67;15.93;;;18.70;98.80;;;;;;5051281;28;20654;-49
2021/07/10 00:03:06;;;;;;;16.93;15.63;;;18.60;98.70;;;;;;5050973;28;20649;-49
2021/07/10 00:05:34;;;;;;;16.67;15.17;;;18.60;98.80;;;;;;5051224;28;20691;-48
2021/07/10 00:08:02;;;;;;;18.40;16.63;;;18.50;98.70;;;;;;5050386;28;20693;-49
2021/07/10 00:10:29;;;;;;;16.60;15.20;;;18.50;98.80;;;;;;5051356;28;20657;-50
2021/07/10 00:12:57;;;;;;;16.63;15.13;;;18.40;98.80;;;;;;5051065;28;20669;-49
2021/07/10 00:15:24;;;;;;;17.47;15.83;;;18.40;99.00;;;;;;5050430;28;20642;-48
2021/07/10 00:17:51;;;;;;;17.97;16.43;;;18.40;99.10;;;;;;5050575;28;20677;-49
2021/07/10 00:20:19;;;;;;;17.00;15.30;;;18.40;98.90;;;;;;5051304;28;20638;-49
2021/07/10 00:22:46;;;;;;;21.27;19.37;;;18.30;98.80;;;;;;5056215;28;20629;-48
2021/07/10 00:25:16;;;;;;;17.87;16.37;;;18.30;98.80;;;;;;5070411;28;20660;-50
2021/07/10 00:27:43;;;;;;;16.37;14.97;;;18.30;98.90;;;;;;5057265;28;21162;-55
2021/07/10 00:30:12;;;;;;;16.83;15.17;;;18.20;98.80;;;;;;5050572;28;20729;-49
2021/07/10 00:32:39;;;;;;;15.70;14.40;;;18.20;98.90;;;;;;5051584;28;20683;-50
2021/07/10 00:35:07;;;;;;;14.63;13.43;;;18.10;99.00;;;;;;5050537;28;20655;-49
2021/07/10 00:37:35;;;;;;;13.77;12.47;;;18.00;99.00;;;;;;5049881;28;20996;-48
2021/07/10 00:40:02;;;;;;;14.70;13.50;;;18.00;99.10;;;;;;5033675;28;20631;-49
2021/07/10 00:42:31;;;;;;;15.87;14.53;;;18.00;99.10;;;;;;5065150;28;20619;-49
2021/07/10 00:44:58;;;;;;;21.20;19.07;;;17.90;99.10;;;;;;5049836;28;20669;-48
2021/07/10 00:47:25;;;;;;;22.70;20.30;;;17.90;99.10;;;;;;5050161;28;20645;-49
2021/07/10 00:49:52;;;;;;;20.60;18.70;;;17.90;99.10;;;;;;5049950;28;20662;-49
2021/07/10 00:52:19;;;;;;;15.53;14.13;;;17.90;99.10;;;;;;5050634;28;20803;-49
2021/07/10 00:54:47;;;;;;;21.77;19.57;;;17.80;99.10;;;;;;5069668;28;20668;-49
2021/07/10 00:57:14;;;;;;;19.07;14.60;;;17.80;99.30;;;;;;5064784;28;20698;-49
2021/07/10 00:59:42;;;;;;;15.47;14.03;;;17.80;99.30;;;;;;5049409;28;20709;-50
2021/07/10 01:02:10;;;;;;;14.90;13.50;;;17.80;99.40;;;;;;5050317;28;21264;-49
2021/07/10 01:04:37;;;;;;;15.10;13.87;;;17.90;99.50;;;;;;5049204;28;21196;-49
2021/07/10 01:07:04;;;;;;;15.17;13.87;;;17.90;99.50;;;;;;5049477;28;20692;-49
2021/07/10 01:09:32;;;;;;;14.33;13.10;;;17.90;99.40;;;;;;5062299;28;21056;-48
2021/07/10 01:11:59;;;;;;;15.77;14.20;;;17.90;99.40;;;;;;5066853;28;21180;-49
2021/07/10 01:14:26;;;;;;;14.17;12.80;;;17.90;99.30;;;;;;5051801;28;21165;-49
2021/07/10 01:16:55;;;;;;;15.30;14.03;;;17.90;99.20;;;;;;5049368;28;20689;-49
2021/07/10 01:19:22;;;;;;;14.60;12.90;;;17.90;99.20;;;;;;5049815;28;20646;-48
2021/07/10 01:21:51;;;;;;;15.67;14.10;;;17.80;99.20;;;;;;5048432;28;20689;-48
2021/07/10 01:24:18;;;;;;;16.13;14.60;;;17.80;99.30;;;;;;5049274;28;20657;-48
2021/07/10 01:26:45;;;;;;;13.33;12.23;;;17.80;99.30;;;;;;5048788;28;20800;-48
2021/07/10 01:29:13;;;;;;;14.70;13.30;;;17.80;99.40;;;;;;5049567;28;20670;-49
2021/07/10 01:31:40;;;;;;;14.67;13.17;;;17.80;99.30;;;;;;5049280;28;20617;-49
2021/07/10 01:34:07;;;;;;;14.00;12.67;;;17.80;99.40;;;;;;5048870;28;20686;-50
2021/07/10 01:36:36;;;;;;;14.77;13.47;;;17.80;99.30;;;;;;5052602;28;20691;-49
2021/07/10 01:39:05;;;;;;;15.17;13.70;;;17.80;99.10;;;;;;5068964;28;21241;-49
2021/07/10 01:41:43;;;;;;;16.27;13.87;;;17.80;99.10;;;;;;5054703;28;20738;-50
2021/07/10 01:44:10;;;;;;;17.03;15.10;;;17.70;99.10;;;;;;5055039;28;20664;-49
2021/07/10 01:46:37;;;;;;;17.00;15.40;;;17.70;99.10;;;;;;5062609;28;20677;-49
2021/07/10 01:49:05;;;;;;;16.10;14.60;;;17.70;99.10;;;;;;5049250;28;20776;-50
2021/07/10 01:51:32;;;;;;;15.27;13.97;;;17.70;99.20;;;;;;5030520;28;20626;-50
2021/07/10 01:53:59;;;;;;;16.10;14.50;;;17.60;99.20;;;;;;5048890;28;20682;-50
2021/07/10 01:56:27;;;;;;;16.97;15.27;;;17.60;99.20;;;;;;5049079;28;20685;-50
2021/07/10 01:58:55;;;;;;;15.27;13.97;;;17.60;99.30;;;;;;5048825;28;21222;-50
2021/07/10 02:01:22;;;;;;;17.30;15.43;;;17.50;99.30;;;;;;5048849;28;21012;-50
2021/07/10 02:03:49;;;;;;;15.90;14.50;;;17.50;99.30;;;;;;5048793;28;20795;-51
2021/07/10 02:06:17;;;;;;;15.20;13.90;;;17.50;99.40;;;;;;5069620;28;20688;-50
2021/07/10 02:08:44;;;;;;;14.23;13.00;;;17.50;99.50;;;;;;5055102;28;20634;-49
2021/07/10 02:11:11;;;;;;;14.77;13.37;;;17.40;99.30;;;;;;5052726;28;20648;-50
2021/07/10 02:13:40;;;;;;;16.37;14.87;;;17.40;99.40;;;;;;5052408;28;20686;-49
2021/07/10 02:16:07;;;;;;;16.30;14.90;;;17.40;99.50;;;;;;5052635;28;20674;-49
2021/07/10 02:18:34;;;;;;;18.23;14.80;;;17.30;99.30;;;;;;5052783;28;20657;-48
2021/07/10 02:21:02;;;;;;;15.57;14.17;;;17.20;99.40;;;;;;5052220;28;20685;-50
2021/07/10 02:23:29;;;;;;;16.33;14.73;;;17.20;99.50;;;;;;5060933;28;20664;-50
2021/07/10 02:25:56;;;;;;;14.73;13.53;;;17.20;99.60;;;;;;5058635;28;20666;-50
2021/07/10 02:28:23;;;;;;;14.77;13.47;;;17.20;99.60;;;;;;5052757;28;21277;-50
2021/07/10 02:30:52;;;;;;;15.37;14.07;;;17.30;99.50;;;;;;5052044;28;21073;-49
2021/07/10 02:33:19;;;;;;;16.03;14.73;;;17.30;99.50;;;;;;5060168;28;20664;-50
2021/07/10 02:35:46;;;;;;;14.00;12.80;;;17.30;99.50;;;;;;5070810;28;20697;-50
2021/07/10 02:38:14;;;;;;;14.87;13.20;;;17.40;99.60;;;;;;5052542;28;20740;-50
2021/07/10 02:40:41;;;;;;;13.10;11.90;;;17.40;99.50;;;;;;5052078;28;20657;-50
2021/07/10 02:43:09;;;;;;;14.80;13.50;;;17.40;99.30;;;;;;5052636;28;20656;-48
2021/07/10 02:45:36;;;;;;;14.67;13.27;;;17.40;99.20;;;;;;5051780;28;20668;-49
2021/07/10 02:48:06;;;;;;;15.37;14.10;;;17.40;99.20;;;;;;5052315;28;20666;-50
2021/07/10 02:50:33;;;;;;;13.40;12.27;;;17.40;99.20;;;;;;5052004;28;20695;-50
2021/07/10 02:53:01;;;;;;;13.47;11.93;;;17.30;99.20;;;;;;5052338;28;20695;-50
2021/07/10 02:55:29;;;;;;;15.30;14.10;;;17.30;99.30;;;;;;5051947;28;21174;-49
2021/07/10 02:57:56;;;;;;;15.30;14.03;;;17.40;99.40;;;;;;5051835;28;20654;-50
2021/07/10 03:00:25;;;;;;;13.83;12.70;;;17.40;99.20;;;;;;5051489;28;20629;-50
2021/07/10 03:02:52;;;;;;;15.83;14.20;;;17.40;99.20;;;;;;5051901;28;20662;-50
2021/07/10 03:05:21;;;;;;;14.53;13.03;;;17.40;99.20;;;;;;5052330;28;20785;-49
2021/07/10 03:07:48;;;;;;;15.40;14.00;;;17.40;99.20;;;;;;5051662;28;20694;-50
2021/07/10 03:10:16;;;;;;;14.57;13.30;;;17.40;99.20;;;;;;5052043;28;20621;-50
2021/07/10 03:12:44;;;;;;;15.67;13.97;;;17.40;99.20;;;;;;5051721;28;20658;-49
2021/07/10 03:15:13;;;;;;;16.27;14.33;;;17.30;99.10;;;;;;5053518;28;20681;-51
2021/07/10 03:17:40;;;;;;;16.70;14.90;;;17.30;99.10;;;;;;5050703;28;21012;-50
2021/07/10 03:20:08;;;;;;;15.27;13.77;;;17.20;99.10;;;;;;5051340;28;21092;-50
2021/07/10 03:22:37;;;;;;;17.13;15.70;;;17.20;99.30;;;;;;5051793;28;20675;-50
2021/07/10 03:25:05;;;;;;;16.90;15.23;;;17.20;99.30;;;;;;5052249;28;20966;-49
2021/07/10 03:27:32;;;;;;;15.53;14.13;;;17.10;99.30;;;;;;5053944;28;20958;-48
2021/07/10 03:29:59;;;;;;;15.80;14.40;;;17.10;99.30;;;;;;5062184;28;20668;-49
2021/07/10 03:32:27;;;;;;;16.23;14.90;;;17.10;99.50;;;;;;5058291;28;20668;-49
2021/07/10 03:34:54;;;;;;;17.43;15.83;;;17.10;99.70;;;;;;5051692;28;21218;-49
2021/07/10 03:37:21;;;;;;;16.80;15.40;;;17.10;99.60;;;;;;5056681;28;20793;-50
2021/07/10 03:39:50;;;;;;;19.73;18.13;;;17.10;99.60;;;;;;5051332;28;21263;-48
2021/07/10 03:42:17;;;;;;;19.77;17.93;;;17.20;99.50;;;;;;5051005;28;20671;-49
2021/07/10 03:44:44;;;;;;;20.73;18.83;;;17.10;99.30;;;;;;5050853;28;20669;-50
2021/07/10 03:47:11;;;;;;;21.27;19.30;;;17.00;99.30;;;;;;5051288;28;20689;-49
2021/07/10 03:49:38;;;;;;;24.77;18.93;;;17.00;99.50;;;;;;5050827;28;21248;-49
2021/07/10 03:52:06;;;;;;;17.83;16.10;;;17.00;99.50;;;;;;5051233;28;20807;-49
2021/07/10 03:54:33;;;;;;;21.40;17.83;;;17.00;99.60;;;;;;5062486;28;21048;-49
2021/07/10 03:57:02;;;;;;;20.00;18.03;;;17.00;99.50;;;;;;5062744;28;20717;-48
2021/07/10 03:59:29;;;;;;;18.73;17.13;;;17.00;99.50;;;;;;5048288;28;20626;-49
2021/07/10 04:01:56;;;;;;;18.43;16.60;;;17.00;99.50;;;;;;5050751;28;20665;-49
2021/07/10 04:04:24;;;;;;;18.10;16.60;;;17.00;99.50;;;;;;5067854;28;21284;-49
2021/07/10 04:06:51;;;;;;;17.70;15.70;;;16.90;99.60;;;;;;5062402;28;20753;-49
2021/07/10 04:09:18;;;;;;;17.27;15.70;;;16.90;99.70;;;;;;5050432;28;20661;-49
2021/07/10 04:11:45;;;;;;;16.70;15.00;;;16.90;99.70;;;;;;5050333;28;21037;-49
2021/07/10 04:14:14;;;;;;;17.30;15.47;;;16.80;99.80;;;;;;5050200;28;20715;-49
2021/07/10 04:16:41;;;;;;;15.87;14.40;;;16.80;99.90;;;;;;5050629;28;21245;-50
2021/07/10 04:19:08;;;;;;;17.03;15.47;;;16.90;99.90;;;;;;5051181;28;20691;-49
2021/07/10 04:21:36;;;;;;;15.73;14.43;;;16.90;99.90;;;;;;5050319;28;20665;-49
2021/07/10 04:24:03;;;;;;;15.13;13.80;;;17.00;99.90;;;;;;5040769;28;20661;-49
2021/07/10 04:26:30;;;;;;;14.97;13.53;;;17.00;99.90;;;;;;5049988;28;21171;-49
2021/07/10 04:28:57;;;;;;;13.90;12.80;;;17.10;99.90;;;;;;5050959;28;20618;-50
2021/07/10 04:31:26;;;;;;;15.33;14.10;;;17.10;99.90;;;;;;5050964;28;20626;-50
2021/07/10 04:33:53;;;;;;;15.83;14.43;;;17.20;99.90;;;;;;5050685;28;20723;-50
2021/07/10 04:36:20;;;;;;;14.57;12.87;;;17.20;99.90;;;;;;5057718;28;20788;-50
2021/07/10 04:38:47;;;;;;;14.20;12.80;;;17.30;99.90;;;;;;5064035;28;20675;-50
2021/07/10 04:41:15;;;;;;;16.60;13.80;;;17.30;99.90;;;;;;5049723;28;20622;-49
2021/07/10 04:43:42;;;;;;;14.60;12.80;;;17.40;99.90;;;;;;5049993;28;20634;-49
2021/07/10 04:46:11;;;;;;;13.87;12.57;;;17.40;99.90;;;;;;5050553;28;20682;-50
2021/07/10 04:48:40;;;;;;;12.70;11.60;;;17.40;99.90;;;;;;5050034;28;20641;-50
2021/07/10 04:51:07;;;;;;;16.77;13.07;;;17.40;99.90;;;;;;5050176;28;20669;-50
2021/07/10 04:53:34;;;;;;;13.03;11.93;;;17.50;99.90;;;;;;5050097;28;20657;-50
2021/07/10 04:56:01;;;;;;;14.57;13.17;;;17.50;99.90;;;;;;5049873;28;21028;-50
2021/07/10 04:58:29;;;;;;;13.47;12.23;;;17.50;99.80;;;;;;5050312;28;20689;-49
2021/07/10 05:00:56;;;;;;;13.57;12.37;;;17.50;99.80;;;;;;5048696;28;20626;-50
2021/07/10 05:03:23;;;;;;;14.17;12.97;;;17.50;99.80;;;;;;5049895;28;20669;-50
2021/07/10 05:05:52;;;;;;;15.43;13.93;;;17.50;99.90;;;;;;5049452;28;20653;-50
2021/07/10 05:08:19;;;;;;;15.67;14.17;;;17.50;99.90;;;;;;5049390;28;21044;-50
2021/07/10 05:10:46;;;;;;;14.23;12.93;;;17.50;99.90;;;;;;5049378;28;20658;-49
2021/07/10 05:13:13;;;;;;;15.57;14.27;;;17.50;99.90;;;;;;5049701;28;20662;-50
2021/07/10 05:15:40;;;;;;;13.53;12.40;;;17.60;99.90;;;;;;5048933;28;21064;-48
2021/07/10 05:18:08;;;;;;;13.60;12.50;;;17.60;99.90;;;;;;5049157;28;20654;-49
2021/07/10 05:20:36;;;;;;;15.47;14.20;;;17.70;99.90;;;;;;5049782;28;20669;-49
2021/07/10 05:23:04;;;;;;;13.37;12.20;;;17.70;99.90;;;;;;5048649;28;20986;-49
2021/07/10 05:25:32;;;;;;;14.53;13.13;;;17.80;99.90;;;;;;5049466;28;21011;-50
2021/07/10 05:27:59;;;;;;;14.80;13.60;;;17.80;99.90;;;;;;5049002;28;20995;-48
2021/07/10 05:30:26;;;;;;;15.37;13.70;;;17.90;99.90;;;;;;5048917;28;21067;-50
2021/07/10 05:32:54;;;;;;;13.70;12.40;;;18.00;99.90;;;;;;5051273;28;20626;-50
2021/07/10 05:35:22;;;;;;;12.73;11.53;;;18.00;99.90;;;;;;5050343;28;20979;-50
2021/07/10 05:37:49;;;;;;;14.23;13.03;;;18.10;99.90;;;;;;5049468;28;20689;-49
2021/07/10 05:40:18;;;;;;;12.53;11.53;;;18.10;99.90;;;;;;5048417;28;20653;-50
2021/07/10 05:42:48;;;;;;;14.30;13.10;;;18.20;99.90;;;;;;5048409;28;20654;-51
2021/07/10 05:45:15;;;;;;;23.07;12.33;;;18.20;99.90;;;;;;5048966;28;20736;-50
2021/07/10 05:47:42;;;;;;;12.17;11.33;;;18.20;99.90;;;;;;5049355;28;20685;-51
2021/07/10 05:50:11;;;;;;;12.17;11.07;;;18.30;99.90;;;;;;5048865;28;20658;-50
2021/07/10 05:52:38;;;;;;;12.93;11.93;;;18.40;99.90;;;;;;5049630;28;21020;-50
2021/07/10 05:55:06;;;;;;;12.70;11.60;;;18.40;99.90;;;;;;5049014;28;20621;-50
2021/07/10 05:57:34;;;;;;;11.97;10.77;;;18.50;99.90;;;;;;5048585;28;20649;-50
2021/07/10 06:00:02;;;;;;;12.03;10.90;;;18.50;99.90;;;;;;5049016;28;20680;-50
2021/07/10 06:02:29;;;;;;;12.90;10.77;;;18.50;99.90;;;;;;5048986;28;21175;-50
2021/07/10 06:04:56;;;;;;;12.87;11.77;;;18.60;99.90;;;;;;5049293;28;20637;-51
2021/07/10 06:07:23;;;;;;;11.00;10.10;;;18.60;99.90;;;;;;5048663;28;21218;-50
2021/07/10 06:09:50;;;;;;;12.80;11.70;;;18.70;99.90;;;;;;5049212;28;20685;-50
2021/07/10 06:12:18;;;;;;;12.10;11.00;;;18.80;99.90;;;;;;5049144;28;20637;-49
2021/07/10 06:14:46;;;;;;;12.27;9.33;;;18.80;99.90;;;;;;5048666;28;20673;-50
2021/07/10 06:17:13;;;;;;;12.80;10.63;;;18.90;99.90;;;;;;5048415;28;20697;-50
2021/07/10 06:19:41;;;;;;;11.27;10.17;;;19.00;99.90;;;;;;5048406;28;20646;-49
2021/07/10 06:22:08;;;;;;;10.10;9.30;;;19.10;99.90;;;;;;5056812;28;21191;-49
2021/07/10 06:24:35;;;;;;;11.60;10.60;;;19.20;99.90;;;;;;5047775;28;20638;-49
2021/07/10 06:27:02;;;;;;;10.50;9.60;;;19.20;99.80;;;;;;5048634;28;20689;-50
2021/07/10 06:29:30;;;;;;;11.03;10.00;;;19.30;99.80;;;;;;5049171;28;20661;-49
2021/07/10 06:31:59;;;;;;;12.77;9.40;;;19.30;99.70;;;;;;5049108;28;21202;-50
2021/07/10 06:34:26;;;;;;;11.23;10.13;;;19.40;99.60;;;;;;5048872;28;20626;-50
2021/07/10 06:36:53;;;;;;;9.87;8.87;;;19.50;99.50;;;;;;5047958;28;21195;-50
2021/07/10 06:39:20;;;;;;;10.97;9.97;;;19.60;99.40;;;;;;5031330;28;20719;-49
2021/07/10 06:41:48;;;;;;;11.43;10.40;;;19.60;99.10;;;;;;5035945;28;20688;-50
2021/07/10 06:44:15;;;;;;;11.80;10.77;;;19.70;99.00;;;;;;5049163;28;20622;-49
2021/07/10 06:46:42;;;;;;;10.43;9.50;;;19.70;99.00;;;;;;5049429;28;20715;-49
2021/07/10 06:49:10;;;;;;;11.30;10.43;;;19.80;98.40;;;;;;5048821;28;20666;-50
2021/07/10 06:51:38;;;;;;;9.33;8.50;;;19.90;98.20;;;;;;5049010;28;20641;-51
2021/07/10 06:54:05;;;;;;;10.77;9.77;;;19.90;97.80;;;;;;5051833;28;20669;-48
2021/07/10 06:56:32;;;;;;;11.27;10.30;;;19.90;97.60;;;;;;5051782;28;20708;-50
2021/07/10 06:58:59;;;;;;;9.87;8.93;;;20.00;97.00;;;;;;5051134;28;20765;-49
2021/07/10 07:01:27;;;;;;;11.57;10.57;;;20.00;96.90;;;;;;5051628;28;20661;-50
2021/07/10 07:03:54;;;;;;;11.03;10.17;;;20.00;96.70;;;;;;5050008;28;20649;-49
2021/07/10 07:06:23;;;;;;;12.60;10.60;;;20.00;96.70;;;;;;5051819;28;21162;-49
2021/07/10 07:08:50;;;;;;;10.03;9.23;;;20.00;97.00;;;;;;5042499;28;20646;-51
2021/07/10 07:11:17;;;;;;;10.90;10.00;;;20.10;97.00;;;;;;5051471;28;20676;-49
2021/07/10 07:13:45;;;;;;;11.10;10.10;;;20.10;96.90;;;;;;5051364;28;20664;-49
2021/07/10 07:16:12;;;;;;;10.50;9.63;;;20.20;97.00;;;;;;5051587;28;21051;-49
2021/07/10 07:18:39;;;;;;;9.77;8.93;;;20.20;97.00;;;;;;5051915;28;20625;-49
2021/07/10 07:21:06;;;;;;;10.87;9.80;;;20.30;97.20;;;;;;5051907;28;20662;-50
2021/07/10 07:23:35;;;;;;;10.23;9.43;;;20.30;97.20;;;;;;5043051;28;20660;-49
2021/07/10 07:26:02;;;;;;;12.20;11.20;;;20.30;97.20;;;;;;5051254;28;20682;-49
2021/07/10 07:28:29;;;;;;;9.60;8.80;;;20.30;97.20;;;;;;5051749;28;20662;-49
2021/07/10 07:30:56;;;;;;;9.53;8.63;;;20.30;97.30;;;;;;5051343;28;20660;-49
2021/07/10 07:33:24;;;;;;;11.07;10.07;;;20.40;97.20;;;;;;5033222;28;21381;-49
2021/07/10 07:35:51;;;;;;;10.10;9.30;;;20.50;97.20;;;;;;5051031;28;20646;-49
2021/07/10 07:38:19;;;;;;;11.37;10.37;;;20.60;97.20;;;;;;5033464;28;20622;-48
2021/07/10 07:40:47;;;;;;;11.63;10.43;;;20.60;97.00;;;;;;5050964;28;20646;-49
2021/07/10 07:43:15;;;;;;;9.37;8.63;;;20.70;97.10;;;;;;5051333;28;20633;-49
2021/07/10 07:45:42;;;;;;;9.17;8.37;;;20.80;97.10;;;;;;5051539;28;20662;-49
2021/07/10 07:48:09;;;;;;;9.80;8.80;;;20.90;95.90;;;;;;5051347;28;20659;-49
2021/07/10 07:50:36;;;;;;;8.60;7.90;;;21.00;95.10;;;;;;5051055;28;21199;-50
2021/07/10 07:53:04;;;;;;;8.90;8.13;;;21.10;94.70;;;;;;5061126;28;20983;-49
2021/07/10 07:55:31;;;;;;;9.70;8.70;;;21.00;94.60;;;;;;5050540;28;20661;-50
2021/07/10 07:57:59;;;;;;;10.70;8.80;;;21.10;95.00;;;;;;5049822;28;20693;-48
2021/07/10 08:00:27;;;;;;;9.50;8.67;;;21.10;94.80;;;;;;5050659;28;21169;-48
2021/07/10 08:02:54;;;;;;;9.70;9.00;;;21.20;95.30;;;;;;5050538;28;20650;-49
2021/07/10 08:05:21;;;;;;;9.97;9.07;;;21.30;95.50;;;;;;5050813;28;21175;-48
2021/07/10 08:07:48;;;;;;;10.00;9.17;;;21.40;95.70;;;;;;5050889;28;20658;-49
2021/07/10 08:10:16;;;;;;;9.30;8.60;;;21.60;95.60;;;;;;5049993;28;20768;-49
2021/07/10 08:12:49;;;;;;;8.90;8.30;;;21.80;95.50;;;;;;5059749;28;21018;-49
2021/07/10 08:15:18;;;;;;;9.83;9.03;;;22.00;94.50;;;;;;5048665;28;20662;-50
2021/07/10 08:17:46;;;;;;;10.00;9.20;;;22.10;94.10;;;;;;5068003;28;20698;-50
2021/07/10 08:20:14;;;;;;;10.10;9.10;;;22.20;93.90;;;;;;5051052;28;20692;-50
2021/07/10 08:22:41;;;;;;;12.07;10.23;;;22.10;93.10;;;;;;5050488;28;20671;-51
2021/07/10 08:25:09;;;;;;;9.23;8.50;;;22.10;93.40;;;;;;5050824;28;20626;-50
2021/07/10 08:27:36;;;;;;;10.03;8.70;;;22.10;93.60;;;;;;5049561;28;20682;-51
2021/07/10 08:30:04;;;;;;;12.83;10.37;;;22.10;93.70;;;;;;5063561;28;20986;-50
2021/07/10 08:32:33;;;;;;;11.27;10.17;;;22.10;94.00;;;;;;5070085;28;20656;-49
2021/07/10 08:35:00;;;;;;;11.47;10.47;;;22.10;94.20;;;;;;5070520;28;20629;-50
2021/07/10 08:37:27;;;;;;;11.70;10.70;;;22.10;94.10;;;;;;5059628;28;21088;-49
2021/07/10 08:39:54;;;;;;;11.33;10.10;;;22.20;93.80;;;;;;5055843;28;20760;-51
2021/07/10 08:42:21;;;;;;;12.97;11.70;;;22.20;94.10;;;;;;5050726;28;20657;-50
2021/07/10 08:44:51;;;;;;;11.17;10.17;;;22.20;93.90;;;;;;5051912;28;21197;-50
2021/07/10 08:47:18;;;;;;;11.37;10.30;;;22.30;93.70;;;;;;5067161;28;20795;-51
2021/07/10 08:49:47;;;;;;;11.30;10.30;;;22.30;93.40;;;;;;5050130;28;20626;-50
2021/07/10 08:52:14;;;;;;;11.10;10.00;;;22.30;93.30;;;;;;5049533;28;20622;-50
2021/07/10 08:54:41;;;;;;;11.77;10.57;;;22.40;93.50;;;;;;5049702;28;20626;-50
2021/07/10 08:57:09;;;;;;;11.70;10.60;;;22.40;93.80;;;;;;5053861;28;20693;-51
2021/07/10 08:59:36;;;;;;;11.93;10.93;;;22.40;93.30;;;;;;5069668;28;21031;-50
2021/07/10 09:02:04;;;;;;;11.20;10.20;;;22.50;93.10;;;;;;5068758;28;20660;-49
2021/07/10 09:04:32;;;;;;;11.03;10.03;;;22.50;92.90;;;;;;5032294;28;20626;-51
2021/07/10 09:07:00;;;;;;;10.90;9.90;;;22.60;93.00;;;;;;5049805;28;20650;-51
2021/07/10 09:09:43;;;;;;;12.60;11.50;;;22.70;93.20;;;;;;5050978;28;20769;-51
2021/07/10 09:12:10;;;;;;;16.63;11.63;;;22.70;92.90;;;;;;5050125;28;21108;-51
2021/07/10 09:14:37;;;;;;;11.20;10.17;;;22.80;92.70;;;;;;5048782;28;21025;-51
2021/07/10 09:17:18;;;;;;;11.00;10.20;;;22.90;92.70;;;;;;5049398;28;20693;-51
2021/07/10 09:19:45;;;;;;;9.87;9.07;;;22.90;92.00;;;;;;5031243;28;20670;-51
2021/07/10 09:22:23;;;;;;;10.97;9.37;;;23.00;92.40;;;;;;5049699;28;20731;-51
2021/07/10 09:24:50;;;;;;;9.73;8.93;;;23.10;91.90;;;;;;5049744;28;21248;-50
2021/07/10 09:27:18;;;;;;;9.57;8.70;;;23.20;91.20;;;;;;5044693;28;20794;-51
2021/07/10 09:29:46;;;;;;;10.43;9.43;;;23.30;90.50;;;;;;5045527;28;20630;-51
2021/07/10 09:32:15;;;;;;;10.97;9.93;;;23.40;90.50;;;;;;5047413;28;20622;-50
2021/07/10 09:34:44;;;;;;;12.00;9.57;;;23.40;90.40;;;;;;5047897;28;20654;-51
2021/07/10 09:37:12;;;;;;;10.37;9.17;;;23.50;90.20;;;;;;5046464;28;20712;-51
2021/07/10 09:39:43;;;;;;;8.70;8.10;;;23.40;90.20;;;;;;5049265;28;20638;-51
2021/07/10 09:42:10;;;;;;;9.67;8.73;;;23.40;90.70;;;;;;5046890;28;21193;-51
2021/07/10 09:44:42;;;;;;;8.17;7.57;;;23.40;90.70;;;;;;5048612;28;20626;-50
2021/07/10 09:47:09;;;;;;;7.70;7.10;;;23.50;90.20;;;;;;5047638;28;20678;-51
2021/07/10 09:49:38;;;;;;;7.43;6.93;;;23.60;89.60;;;;;;5047086;28;20706;-51
2021/07/10 09:52:10;;;;;;;8.17;7.57;;;23.70;88.70;;;;;;5048002;28;20649;-50
2021/07/10 09:54:41;;;;;;;8.73;8.13;;;23.70;88.70;;;;;;5045451;28;20660;-51
2021/07/10 09:57:10;;;;;;;8.37;7.57;;;23.70;87.90;;;;;;5047071;28;21207;-52
2021/07/10 09:59:40;;;;;;;7.60;6.90;;;23.70;87.90;;;;;;5047217;28;21066;-51
2021/07/10 10:02:18;;;;;;;9.10;8.10;;;23.70;86.50;;;;;;5046464;28;20665;-51
2021/07/10 10:04:46;;;;;;;8.70;8.10;;;23.60;87.30;;;;;;5049491;28;20630;-51
2021/07/10 10:07:15;;;;;;;7.93;7.33;;;23.60;86.90;;;;;;5048654;28;20728;-50
2021/07/10 10:09:43;;;;;;;8.37;7.67;;;23.50;88.00;;;;;;5048721;28;21025;-50
2021/07/10 10:12:12;;;;;;;7.57;6.87;;;23.40;88.90;;;;;;5048815;28;20672;-50
2021/07/10 10:14:49;;;;;;;6.70;6.20;;;23.40;88.80;;;;;;5047261;28;20650;-50
2021/07/10 10:17:17;;;;;;;9.27;8.30;;;23.40;88.20;;;;;;5046518;28;20704;-52
2021/07/10 10:19:44;;;;;;;7.73;7.20;;;23.50;88.80;;;;;;5049160;28;20658;-51
2021/07/10 10:22:13;;;;;;;7.93;7.30;;;23.50;88.00;;;;;;5048332;28;21034;-51
2021/07/10 10:24:44;;;;;;;6.90;6.30;;;23.50;87.80;;;;;;5048878;28;21266;-50
2021/07/10 10:27:11;;;;;;;7.90;7.17;;;23.60;87.90;;;;;;5052458;28;20661;-50
2021/07/10 10:29:39;;;;;;;7.30;6.80;;;23.60;87.70;;;;;;5052963;28;20668;-50
2021/07/10 10:32:07;;;;;;;8.63;7.93;;;23.70;88.20;;;;;;5052851;28;20688;-51
2021/07/10 10:34:35;;;;;;;7.53;6.83;;;23.70;88.50;;;;;;5052835;28;20633;-50
2021/07/10 10:37:02;;;;;;;7.40;6.80;;;23.70;88.20;;;;;;5052591;28;20685;-49
2021/07/10 10:39:30;;;;;;;6.70;6.20;;;23.80;88.30;;;;;;5052914;28;20942;-51
2021/07/10 10:42:01;;;;;;;14.27;12.93;;;23.90;87.50;;;;;;5052419;28;20658;-51
2021/07/10 10:44:34;;;;;;;7.23;6.20;;;23.90;87.10;;;;;;5050084;28;20634;-51
2021/07/10 10:47:01;;;;;;;7.80;7.03;;;23.90;87.00;;;;;;5051936;28;20700;-51
2021/07/10 10:49:53;;;;;;;7.50;6.90;;;23.90;86.60;;;;;;5052028;28;20649;-52
2021/07/10 10:52:35;;;;;;;6.30;5.80;;;24.00;87.10;;;;;;5048824;28;21340;-52
2021/07/10 10:55:16;;;;;;;6.97;6.00;;;24.10;87.20;;;;;;5051796;28;20668;-50
2021/07/10 10:57:48;;;;;;;6.13;5.63;;;24.10;86.60;;;;;;5047449;28;20693;-52
2021/07/10 11:00:18;;;;;;;7.33;6.73;;;24.20;86.40;;;;;;5050677;28;20673;-51
2021/07/10 11:03:13;;;;;;;7.90;7.30;;;24.20;85.60;;;;;;5051464;28;20653;-50
2021/07/10 11:05:56;;;;;;;7.00;6.50;;;24.30;84.90;;;;;;5052365;28;21293;-49
2021/07/10 11:08:28;;;;;;;6.23;5.50;;;24.30;84.70;;;;;;5052902;28;20634;-49
2021/07/10 11:11:31;;;;;;;8.53;7.03;;;24.30;84.30;;;;;;5051899;28;20618;-48
2021/07/10 11:14:14;;;;;;;5.70;5.30;;;24.30;83.60;;;;;;5025718;28;20671;-50
2021/07/10 11:17:04;;;;;;;6.63;6.20;;;24.30;83.30;;;;;;5052189;28;20822;-50
2021/07/10 11:19:44;;;;;;;6.67;6.17;;;24.30;83.20;;;;;;5052372;28;21159;-49
2021/07/10 11:22:12;;;;;;;5.73;5.13;;;24.20;81.50;;;;;;5031807;28;20685;-49
2021/07/10 11:24:46;;;;;;;6.30;5.90;;;24.20;81.50;;;;;;5047952;28;20672;-50
2021/07/10 11:27:25;;;;;;;5.80;5.30;;;24.20;81.70;;;;;;5051991;28;20723;-50
2021/07/10 11:30:18;;;;;;;6.43;5.93;;;24.20;81.30;;;;;;5051793;28;20617;-51
2021/07/10 11:32:45;;;;;;;7.00;6.40;;;24.20;81.90;;;;;;5052181;28;20691;-50
2021/07/10 11:35:13;;;;;;;6.23;5.60;;;24.20;81.70;;;;;;5049042;28;20622;-50
2021/07/10 11:37:42;;;;;;;6.37;5.77;;;24.30;81.50;;;;;;5056228;28;21187;-51
2021/07/10 11:40:10;;;;;;;6.90;6.20;;;24.30;81.10;;;;;;5072128;28;20617;-51
2021/07/10 11:42:48;;;;;;;6.23;5.73;;;24.30;81.90;;;;;;5059802;28;20650;-51
2021/07/10 11:45:27;;;;;;;6.90;6.40;;;24.40;81.60;;;;;;5052440;28;20617;-51
2021/07/10 11:47:56;;;;;;;6.30;5.80;;;24.50;81.70;;;;;;5051267;28;20720;-51
2021/07/10 11:50:24;;;;;;;6.30;5.80;;;24.50;81.50;;;;;;5052624;28;20630;-51
2021/07/10 11:52:56;;;;;;;6.20;5.70;;;24.50;81.40;;;;;;5051706;28;20626;-51
2021/07/10 11:55:24;;;;;;;6.67;6.17;;;24.50;80.90;;;;;;5051799;28;21128;-50
2021/07/10 11:57:51;;;;;;;5.67;5.27;;;24.50;81.10;;;;;;5051336;28;20685;-49
2021/07/10 12:00:20;;;;;;;6.07;5.43;;;24.40;80.70;;;;;;5046430;28;20673;-51
2021/07/10 12:02:47;;;;;;;5.33;4.93;;;24.50;80.00;;;;;;5052565;28;20626;-49
2021/07/10 12:05:15;;;;;;;5.80;5.40;;;24.40;79.50;;;;;;5051398;28;20618;-50
2021/07/10 12:07:43;;;;;;;7.30;4.70;;;24.50;80.20;;;;;;5051339;28;20650;-51
2021/07/10 12:10:12;;;;;;;5.80;5.40;;;24.40;80.00;;;;;;5050992;28;20717;-51
2021/07/10 12:12:46;;;;;;;5.23;4.83;;;24.50;78.00;;;;;;5048360;28;20662;-49
2021/07/10 12:15:14;;;;;;;6.20;5.70;;;24.50;75.70;;;;;;5051362;28;20613;-49
2021/07/10 12:17:45;;;;;;;5.40;5.00;;;24.50;75.70;;;;;;5051247;28;20725;-50
2021/07/10 12:20:15;;;;;;;6.40;5.90;;;24.50;76.10;;;;;;5041562;28;20700;-51
2021/07/10 12:22:50;;;;;;;5.57;5.17;;;24.50;75.50;;;;;;5050768;28;20658;-51
2021/07/10 12:25:17;;;;;;;5.93;5.47;;;24.60;74.90;;;;;;5048571;28;20836;-50
2021/07/10 12:27:51;;;;;;;6.30;5.80;;;24.60;74.80;;;;;;5050250;28;20685;-50
2021/07/10 12:30:18;;;;;;;5.90;5.40;;;24.70;75.40;;;;;;5044154;28;20670;-50
2021/07/10 12:32:46;;;;;;;5.30;4.90;;;24.80;73.50;;;;;;5031351;28;20650;-55
2021/07/10 12:35:15;;;;;;;5.90;5.47;;;24.80;73.00;;;;;;5050027;28;20662;-50
2021/07/10 12:37:42;;;;;;;6.80;6.20;;;24.90;73.10;;;;;;5045632;28;20693;-50
2021/07/10 12:40:10;;;;;;;5.70;5.30;;;24.90;72.90;;;;;;5043948;28;20693;-49